createdAt,value
2023-02-13T00:01:33.026Z,16.70
2023-02-13T00:04:01.771Z,16.30
2023-02-13T00:06:31.902Z,14.98
2023-02-13T00:09:00.439Z,17.65
2023-02-13T00:11:29.108Z,15.82
2023-02-13T00:13:57.676Z,14.60
2023-02-13T00:16:26.245Z,16.58
2023-02-13T00:18:54.896Z,16.67
2023-02-13T00:21:23.528Z,16.95
2023-02-13T00:23:53.517Z,15.77
2023-02-13T00:26:22.032Z,14.95
2023-02-13T00:28:50.571Z,13.20
2023-02-13T00:31:21.313Z,15.15
2023-02-13T00:33:51.004Z,14.88
2023-02-13T00:36:22.550Z,15.23
2023-02-13T00:38:52.870Z,14.80
2023-02-13T00:41:22.679Z,13.15
2023-02-13T00:43:53.474Z,14.70
2023-02-13T00:46:22.150Z,14.45
2023-02-13T00:48:50.763Z,12.43
2023-02-13T00:51:19.325Z,14.75
2023-02-13T00:53:47.839Z,14.68
2023-02-13T00:56:18.895Z,13.20
2023-02-13T00:58:47.653Z,14.63
2023-02-13T01:01:16.798Z,13.48
2023-02-13T01:03:45.470Z,14.25
2023-02-13T01:06:14.027Z,12.88
2023-02-13T01:08:42.707Z,13.02
2023-02-13T01:11:11.281Z,13.52
2023-02-13T01:13:41.275Z,12.80
2023-02-13T01:16:09.914Z,12.77
2023-02-13T01:18:38.602Z,12.70
2023-02-13T01:21:09.637Z,14.48
2023-02-13T01:23:39.862Z,14.23
2023-02-13T01:26:12.063Z,13.25
2023-02-13T01:28:42.086Z,13.63
2023-02-13T01:31:10.742Z,15.45
2023-02-13T01:33:39.378Z,12.90
2023-02-13T01:36:10.476Z,13.98
2023-02-13T01:38:40.214Z,13.55
2023-02-13T01:41:09.551Z,14.82
2023-02-13T01:43:48.127Z,12.55
2023-02-13T01:46:19.800Z,13.55
2023-02-13T01:48:50.562Z,13.65
2023-02-13T01:51:23.332Z,15.52
2023-02-13T01:53:57.165Z,13.52
2023-02-13T01:56:30.713Z,12.63
2023-02-13T01:59:03.611Z,13.77
2023-02-13T02:01:33.646Z,13.20
2023-02-13T02:04:08.803Z,12.77
2023-02-13T02:06:41.156Z,12.32
2023-02-13T02:09:14.557Z,12.55
2023-02-13T02:11:49.968Z,14.40
2023-02-13T02:14:20.611Z,12.45
2023-02-13T02:16:49.183Z,12.63
2023-02-13T02:19:30.382Z,14.13
2023-02-13T02:22:24.396Z,13.93
2023-02-13T02:25:18.513Z,15.32
2023-02-13T02:28:11.510Z,12.73
2023-02-13T02:31:06.807Z,15.07
2023-02-13T02:33:49.750Z,14.48
2023-02-13T02:36:30.724Z,13.38
2023-02-13T02:39:07.168Z,13.85
2023-02-13T02:41:54.663Z,15.20
2023-02-13T02:44:37.707Z,14.63
2023-02-13T02:47:30.207Z,14.15
2023-02-13T02:50:14.314Z,14.85
2023-02-13T02:53:00.427Z,14.68
2023-02-13T02:55:37.296Z,13.05
2023-02-13T02:58:31.864Z,13.75
2023-02-13T03:01:21.582Z,13.32
2023-02-13T03:04:09.370Z,13.52
2023-02-13T03:06:45.456Z,14.60
2023-02-13T03:09:35.297Z,16.88
2023-02-13T03:12:22.136Z,12.63
2023-02-13T03:14:50.778Z,15.52
2023-02-13T03:17:38.620Z,16.65
2023-02-13T03:20:37.384Z,15.63
2023-02-13T03:23:14.958Z,14.77
2023-02-13T03:26:15.823Z,18.10
2023-02-13T03:29:10.841Z,16.63
2023-02-13T03:31:50.631Z,15.52
2023-02-13T03:34:22.759Z,15.52
2023-02-13T03:37:18.181Z,16.27
2023-02-13T03:39:57.619Z,15.57
2023-02-13T03:42:31.725Z,15.00
2023-02-13T03:45:22.219Z,14.90
2023-02-13T03:47:54.032Z,15.50
2023-02-13T03:50:22.510Z,16.58
2023-02-13T03:52:54.783Z,15.57
2023-02-13T03:55:46.744Z,15.98
2023-02-13T03:58:36.715Z,16.08
2023-02-13T04:01:09.208Z,14.25
2023-02-13T04:03:47.107Z,16.90
2023-02-13T04:06:18.122Z,16.08
2023-02-13T04:08:47.000Z,15.95
2023-02-13T04:11:22.594Z,14.85
2023-02-13T04:13:57.697Z,15.18
2023-02-13T04:16:33.105Z,14.27
2023-02-13T04:19:02.733Z,15.95
2023-02-13T04:21:34.507Z,15.18
2023-02-13T04:24:03.290Z,13.98
2023-02-13T04:26:36.730Z,15.43
2023-02-13T04:29:05.535Z,14.68
2023-02-13T04:31:34.196Z,15.88
2023-02-13T04:34:02.918Z,13.30
2023-02-13T04:36:31.699Z,15.15
2023-02-13T04:39:00.301Z,14.35
2023-02-13T04:41:28.883Z,15.70
2023-02-13T04:43:58.959Z,14.75
2023-02-13T04:46:27.592Z,13.73
2023-02-13T04:48:56.220Z,14.98
2023-02-13T04:51:24.742Z,13.98
2023-02-13T04:53:53.286Z,13.80
2023-02-13T04:56:21.882Z,13.55
2023-02-13T04:58:50.427Z,13.98
2023-02-13T05:01:20.370Z,13.15
2023-02-13T05:03:49.449Z,15.55
2023-02-13T05:06:18.034Z,14.82
2023-02-13T05:08:46.621Z,11.75
2023-02-13T05:11:15.284Z,13.00
2023-02-13T05:13:43.843Z,13.75
2023-02-13T05:16:12.495Z,17.23
2023-02-13T05:18:42.472Z,13.13
2023-02-13T05:21:28.509Z,12.38
2023-02-13T05:23:57.040Z,14.38
2023-02-13T05:26:25.754Z,16.58
2023-02-13T05:29:11.677Z,15.00
2023-02-13T05:31:40.361Z,12.40
2023-02-13T05:34:10.268Z,13.38
2023-02-13T05:36:39.927Z,14.88
2023-02-13T05:39:09.187Z,17.27
2023-02-13T05:41:37.737Z,14.00
2023-02-13T05:44:06.613Z,14.57
2023-02-13T05:46:35.295Z,16.08
2023-02-13T05:49:04.903Z,17.48
2023-02-13T05:51:34.862Z,15.30
2023-02-13T05:54:03.613Z,14.77
2023-02-13T05:56:32.176Z,15.15
2023-02-13T05:59:01.022Z,15.50
2023-02-13T06:01:29.531Z,13.57
2023-02-13T06:03:59.642Z,14.90
2023-02-13T06:06:29.112Z,14.70
2023-02-13T06:08:59.106Z,14.25
2023-02-13T06:11:27.680Z,12.50
2023-02-13T06:13:56.280Z,15.20
2023-02-13T06:16:24.926Z,15.95
2023-02-13T06:18:53.599Z,15.13
2023-02-13T06:21:22.692Z,14.15
2023-02-13T06:23:51.318Z,13.70
2023-02-13T06:26:21.223Z,15.23
2023-02-13T06:28:49.964Z,13.63
2023-02-13T06:31:18.574Z,13.25
2023-02-13T06:33:47.230Z,13.70
2023-02-13T06:36:15.838Z,15.18
2023-02-13T06:38:44.551Z,14.18
2023-02-13T06:41:13.100Z,13.52
2023-02-13T06:43:42.973Z,12.07
2023-02-13T06:46:11.744Z,13.65
2023-02-13T06:48:40.414Z,15.43
2023-02-13T06:51:08.944Z,13.77
2023-02-13T06:53:37.623Z,13.68
2023-02-13T06:56:07.140Z,15.23
2023-02-13T06:58:35.992Z,14.90
2023-02-13T07:01:06.266Z,15.43
2023-02-13T07:03:34.935Z,15.45
2023-02-13T07:06:03.533Z,14.20
2023-02-13T07:08:32.106Z,14.30
2023-02-13T07:11:00.735Z,18.70
2023-02-13T07:13:29.375Z,17.15
2023-02-13T07:16:02.187Z,15.70
2023-02-13T07:18:32.165Z,14.20
2023-02-13T07:21:00.821Z,13.02
2023-02-13T07:23:29.372Z,15.98
2023-02-13T07:26:00.507Z,17.63
2023-02-13T07:28:30.092Z,14.57
2023-02-13T07:30:59.483Z,15.10
2023-02-13T07:33:28.167Z,15.00
2023-02-13T07:35:58.137Z,20.63
2023-02-13T07:38:26.768Z,17.58
2023-02-13T07:40:55.798Z,16.33
2023-02-13T07:43:25.004Z,18.52
2023-02-13T07:45:55.666Z,18.05
2023-02-13T07:48:24.816Z,16.83
2023-02-13T07:50:53.628Z,18.17
2023-02-13T07:53:23.658Z,15.43
2023-02-13T07:55:52.396Z,16.05
2023-02-13T07:58:20.976Z,17.95
2023-02-13T08:00:49.604Z,15.70
2023-02-13T08:03:18.393Z,15.82
2023-02-13T08:05:49.574Z,16.52
2023-02-13T08:08:18.250Z,16.60
2023-02-13T08:11:05.533Z,22.30
2023-02-13T08:13:34.213Z,16.02
2023-02-13T08:16:02.811Z,18.95
2023-02-13T08:18:31.389Z,16.95
2023-02-13T08:20:59.927Z,17.30
2023-02-13T08:23:28.496Z,15.30
2023-02-13T08:26:01.319Z,17.60
2023-02-13T08:28:35.160Z,18.23
2023-02-13T08:31:03.901Z,20.88
2023-02-13T08:33:32.492Z,19.27
2023-02-13T08:36:03.676Z,19.42
2023-02-13T08:38:32.200Z,17.17
2023-02-13T08:41:02.284Z,16.92
2023-02-13T08:43:30.862Z,18.92
2023-02-13T08:46:00.906Z,15.82
2023-02-13T08:48:30.596Z,14.52
2023-02-13T08:50:59.349Z,17.77
2023-02-13T08:53:27.928Z,14.65
2023-02-13T08:55:57.890Z,16.00
2023-02-13T08:58:28.320Z,16.38
2023-02-13T09:00:57.119Z,15.75
2023-02-13T09:03:25.823Z,15.93
2023-02-13T09:05:54.433Z,15.88
2023-02-13T09:08:24.374Z,16.40
2023-02-13T09:10:57.792Z,20.08
2023-02-13T09:13:27.997Z,18.27
2023-02-13T09:15:59.959Z,15.55
2023-02-13T09:18:29.342Z,15.70
2023-02-13T09:21:02.231Z,16.33
2023-02-13T09:23:37.801Z,14.52
2023-02-13T09:26:08.633Z,14.98
2023-02-13T09:28:39.325Z,15.27
2023-02-13T09:31:09.037Z,16.30
2023-02-13T09:33:38.045Z,17.17
2023-02-13T09:36:07.551Z,15.98
2023-02-13T09:38:36.590Z,15.63
2023-02-13T09:41:08.748Z,15.30
2023-02-13T09:43:45.637Z,14.40
2023-02-13T09:46:18.172Z,12.55
2023-02-13T09:48:50.709Z,13.98
2023-02-13T09:51:23.307Z,16.42
2023-02-13T09:53:55.682Z,13.68
2023-02-13T09:56:49.890Z,14.90
2023-02-13T09:59:35.991Z,14.35
2023-02-13T10:02:21.384Z,14.35
2023-02-13T10:04:58.113Z,13.95
2023-02-13T10:07:35.323Z,13.32
2023-02-13T10:10:13.028Z,12.63
2023-02-13T10:12:57.247Z,14.30
2023-02-13T10:15:34.814Z,14.07
2023-02-13T10:18:06.427Z,17.13
2023-02-13T10:20:40.957Z,14.18
2023-02-13T10:23:20.006Z,13.07
2023-02-13T10:25:53.605Z,11.75
2023-02-13T10:28:33.339Z,11.70
2023-02-13T10:31:08.322Z,15.00
2023-02-13T10:33:45.089Z,13.10
2023-02-13T10:36:19.178Z,11.00
2023-02-13T10:38:57.145Z,12.52
2023-02-13T10:41:31.964Z,9.95
2023-02-13T10:44:20.857Z,11.35
2023-02-13T10:47:00.901Z,12.98
2023-02-13T10:49:47.569Z,12.23
2023-02-13T10:52:27.037Z,11.13
2023-02-13T10:55:06.514Z,13.07
2023-02-13T10:57:54.653Z,11.60
2023-02-13T11:00:30.872Z,11.73
2023-02-13T11:03:01.026Z,12.48
2023-02-13T11:05:33.201Z,9.95
2023-02-13T11:08:02.261Z,10.38
2023-02-13T11:10:30.845Z,10.25
2023-02-13T11:13:18.206Z,10.15
2023-02-13T11:15:59.439Z,10.55
2023-02-13T11:18:34.043Z,12.25
2023-02-13T11:21:08.848Z,10.63
2023-02-13T11:23:45.089Z,11.55
2023-02-13T11:26:21.977Z,8.55
2023-02-13T11:28:55.007Z,9.75
2023-02-13T11:31:28.024Z,9.50
2023-02-13T11:33:59.396Z,10.32
2023-02-13T11:36:30.733Z,10.48
2023-02-13T11:39:01.482Z,10.57
2023-02-13T11:41:31.223Z,7.88
2023-02-13T11:44:02.352Z,9.00
2023-02-13T11:46:43.974Z,10.50
2023-02-13T11:49:19.989Z,8.10
2023-02-13T11:51:51.014Z,9.55
2023-02-13T11:54:26.631Z,10.48
2023-02-13T11:57:05.954Z,9.40
2023-02-13T11:59:42.590Z,7.95
2023-02-13T12:02:16.454Z,7.75
2023-02-13T12:04:47.180Z,7.25
2023-02-13T12:07:20.085Z,8.65
2023-02-13T12:09:52.914Z,7.20
2023-02-13T12:12:28.430Z,7.70
2023-02-13T12:14:58.239Z,7.63
2023-02-13T12:17:32.521Z,8.80
2023-02-13T12:20:03.093Z,8.95
2023-02-13T12:22:37.827Z,7.00
2023-02-13T12:25:38.896Z,8.93
2023-02-13T12:28:20.958Z,6.15
2023-02-13T12:31:05.707Z,4.95
2023-02-13T12:34:00.654Z,9.30
2023-02-13T12:36:43.171Z,5.97
2023-02-13T12:39:19.565Z,5.90
2023-02-13T12:42:06.218Z,8.95
2023-02-13T12:45:03.484Z,6.20
2023-02-13T12:47:37.383Z,6.13
2023-02-13T12:50:33.054Z,5.47
2023-02-13T12:53:23.560Z,9.52
2023-02-13T12:56:13.738Z,5.65
2023-02-13T12:59:01.313Z,5.13
2023-02-13T13:02:07.280Z,8.75
2023-02-13T13:04:50.998Z,6.30
2023-02-13T13:07:51.682Z,5.13
2023-02-13T13:10:35.003Z,7.55
2023-02-13T13:13:15.089Z,5.53
2023-02-13T13:15:53.375Z,7.32
2023-02-13T13:18:35.854Z,6.95
2023-02-13T13:21:17.957Z,5.68
2023-02-13T13:23:57.274Z,5.38
2023-02-13T13:26:35.948Z,6.10
2023-02-13T13:29:10.935Z,6.45
2023-02-13T13:31:40.016Z,4.03
2023-02-13T13:34:14.546Z,6.13
2023-02-13T13:36:49.736Z,7.90
2023-02-13T13:39:31.186Z,5.90
2023-02-13T13:42:09.869Z,5.80
2023-02-13T13:45:04.858Z,4.60
2023-02-13T13:47:53.741Z,4.60
2023-02-13T13:50:25.040Z,4.10
2023-02-13T13:53:12.256Z,4.60
2023-02-13T13:56:00.921Z,4.15
2023-02-13T13:58:37.492Z,4.88
2023-02-13T14:01:32.115Z,8.35
2023-02-13T14:04:03.631Z,4.93
2023-02-13T14:07:05.284Z,6.55
2023-02-13T14:09:41.917Z,5.00
2023-02-13T14:12:39.557Z,8.45
2023-02-13T14:15:50.791Z,5.10
2023-02-13T14:18:23.718Z,6.10
2023-02-13T14:20:54.005Z,4.97
2023-02-13T14:23:34.402Z,7.78
2023-02-13T14:26:27.546Z,6.88
2023-02-13T14:29:00.669Z,5.65
2023-02-13T14:31:32.842Z,5.15
2023-02-13T14:34:04.031Z,3.65
2023-02-13T14:36:34.835Z,3.63
2023-02-13T14:39:06.714Z,4.95
2023-02-13T14:41:47.490Z,4.22
2023-02-13T14:44:20.217Z,3.90
2023-02-13T14:46:52.048Z,3.80
2023-02-13T14:49:24.246Z,4.47
2023-02-13T14:51:55.204Z,4.50
2023-02-13T14:54:28.966Z,4.40
2023-02-13T14:57:07.117Z,4.15
2023-02-13T14:59:39.774Z,5.15
2023-02-13T15:02:22.006Z,6.28
2023-02-13T15:04:55.081Z,7.18
2023-02-13T15:07:26.494Z,3.88
2023-02-13T15:10:00.507Z,3.80
2023-02-13T15:12:31.687Z,4.88
2023-02-13T15:15:02.237Z,6.18
2023-02-13T15:17:38.558Z,6.38
2023-02-13T15:20:19.493Z,6.53
2023-02-13T15:22:48.785Z,5.25
2023-02-13T15:25:26.685Z,5.95
2023-02-13T15:27:56.565Z,5.88
2023-02-13T15:30:26.902Z,6.07
2023-02-13T15:32:59.080Z,6.75
2023-02-13T15:35:30.905Z,6.35
2023-02-13T15:37:59.801Z,4.75
2023-02-13T15:40:30.798Z,7.28
2023-02-13T15:43:00.372Z,6.38
2023-02-13T15:45:31.869Z,6.18
2023-02-13T15:48:01.769Z,8.00
2023-02-13T15:50:32.963Z,13.05
2023-02-13T15:53:03.747Z,6.63
2023-02-13T15:55:36.578Z,7.95
2023-02-13T15:58:05.456Z,8.05
2023-02-13T16:00:37.358Z,6.75
2023-02-13T16:03:09.357Z,6.13
2023-02-13T16:05:41.385Z,5.28
2023-02-13T16:08:32.351Z,6.10
2023-02-13T16:11:27.677Z,5.82
2023-02-13T16:14:07.172Z,6.10
2023-02-13T16:16:43.149Z,10.07
2023-02-13T16:19:30.936Z,7.68
2023-02-13T16:22:02.683Z,4.97
2023-02-13T16:24:31.768Z,7.47
2023-02-13T16:27:00.658Z,6.53
2023-02-13T16:29:29.522Z,6.20
2023-02-13T16:32:11.014Z,5.40
2023-02-13T16:34:41.069Z,4.40
2023-02-13T16:37:31.919Z,5.57
2023-02-13T16:40:33.127Z,4.57
2023-02-13T16:43:36.680Z,4.70
2023-02-13T16:46:14.349Z,5.15
2023-02-13T16:48:44.085Z,5.63
2023-02-13T16:51:14.413Z,6.40
2023-02-13T16:53:43.339Z,4.53
2023-02-13T16:56:12.663Z,5.10
2023-02-13T16:58:41.425Z,5.43
2023-02-13T17:01:18.210Z,6.18
2023-02-13T17:03:47.883Z,4.78
2023-02-13T17:06:17.846Z,5.00
2023-02-13T17:08:46.324Z,5.10
2023-02-13T17:11:19.993Z,5.45
2023-02-13T17:13:48.501Z,5.32
2023-02-13T17:16:17.151Z,5.57
2023-02-13T17:18:45.837Z,6.55
2023-02-13T17:21:15.237Z,6.50
2023-02-13T17:23:45.143Z,5.78
2023-02-13T17:26:13.683Z,6.40
2023-02-13T17:28:42.440Z,5.57
2023-02-13T17:31:13.937Z,7.28
2023-02-13T17:33:43.241Z,7.15
2023-02-13T17:36:13.632Z,6.40
2023-02-13T17:38:42.227Z,6.88
2023-02-13T17:41:16.017Z,7.25
2023-02-13T17:43:44.620Z,7.28
2023-02-13T17:46:15.294Z,7.28
2023-02-13T17:48:43.887Z,10.13
2023-02-13T17:51:14.857Z,8.85
2023-02-13T17:53:43.444Z,7.20
2023-02-13T17:56:13.377Z,7.85
2023-02-13T17:58:42.195Z,7.80
2023-02-13T18:01:11.436Z,8.57
2023-02-13T18:03:40.474Z,10.07
2023-02-13T18:06:12.622Z,7.88
2023-02-13T18:08:41.244Z,9.35
2023-02-13T18:11:14.435Z,5.97
2023-02-13T18:13:48.037Z,7.10
2023-02-13T18:16:17.251Z,5.63
2023-02-13T18:18:45.835Z,4.35
2023-02-13T18:21:14.422Z,6.55
2023-02-13T18:23:43.042Z,3.58
2023-02-13T18:26:13.403Z,4.75
2023-02-13T18:28:42.005Z,3.85
2023-02-13T18:31:11.615Z,2.55
2023-02-13T18:33:40.224Z,6.72
2023-02-13T18:36:08.850Z,3.50
2023-02-13T18:38:37.535Z,4.47
2023-02-13T18:41:06.323Z,3.85
2023-02-13T18:43:36.216Z,4.60
2023-02-13T18:46:05.109Z,3.70
2023-02-13T18:48:33.728Z,3.15
2023-02-13T18:51:02.828Z,5.82
2023-02-13T18:53:31.771Z,3.75
2023-02-13T18:56:01.722Z,6.78
2023-02-13T18:58:30.283Z,4.72
2023-02-13T19:01:06.483Z,4.63
2023-02-13T19:03:35.031Z,3.35
2023-02-13T19:06:08.021Z,3.17
2023-02-13T19:08:37.393Z,3.35
2023-02-13T19:11:07.126Z,4.22
2023-02-13T19:13:35.807Z,3.83
2023-02-13T19:16:07.076Z,4.15
2023-02-13T19:18:38.299Z,4.53
2023-02-13T19:21:07.663Z,4.03
2023-02-13T19:23:37.142Z,4.53
2023-02-13T19:26:06.950Z,4.47
2023-02-13T19:28:35.848Z,6.90
2023-02-13T19:31:08.665Z,4.95
2023-02-13T19:33:38.334Z,4.47
2023-02-13T19:36:09.713Z,3.85
2023-02-13T19:38:38.672Z,4.38
2023-02-13T19:41:08.393Z,5.28
2023-02-13T19:43:36.978Z,5.28
2023-02-13T19:46:10.114Z,4.45
2023-02-13T19:48:38.683Z,4.93
2023-02-13T19:51:08.349Z,5.53
2023-02-13T19:53:37.191Z,4.75
2023-02-13T19:56:06.996Z,5.85
2023-02-13T19:58:37.555Z,10.07
2023-02-13T20:01:12.426Z,6.90
2023-02-13T20:03:41.297Z,5.53
2023-02-13T20:06:12.258Z,6.03
2023-02-13T20:08:42.970Z,7.88
2023-02-13T20:11:13.258Z,6.30
2023-02-13T20:13:42.514Z,6.22
2023-02-13T20:16:14.517Z,7.07
2023-02-13T20:18:43.435Z,6.75
2023-02-13T20:21:14.122Z,7.60
2023-02-13T20:23:48.293Z,8.25
2023-02-13T20:26:17.380Z,8.85
2023-02-13T20:28:47.787Z,6.88
2023-02-13T20:31:20.074Z,8.20
2023-02-13T20:33:49.911Z,7.85
2023-02-13T20:36:20.641Z,9.15
2023-02-13T20:38:50.233Z,8.02
2023-02-13T20:41:21.603Z,9.00
2023-02-13T20:43:50.487Z,7.50
2023-02-13T20:46:20.657Z,9.18
2023-02-13T20:48:50.141Z,12.68
2023-02-13T20:51:19.621Z,8.70
2023-02-13T20:53:48.239Z,7.72
2023-02-13T20:56:20.549Z,11.13
2023-02-13T20:58:50.732Z,10.18
2023-02-13T21:01:22.415Z,10.23
2023-02-13T21:03:54.826Z,11.52
2023-02-13T21:06:25.092Z,9.57
2023-02-13T21:08:54.334Z,8.35
2023-02-13T21:11:23.088Z,10.63
2023-02-13T21:13:52.351Z,11.20
2023-02-13T21:16:25.726Z,11.63
2023-02-13T21:18:56.070Z,10.65
2023-02-13T21:21:26.676Z,12.60
2023-02-13T21:23:56.432Z,9.65
2023-02-13T21:26:25.768Z,10.02
2023-02-13T21:28:54.975Z,8.95
2023-02-13T21:31:29.184Z,10.68
2023-02-13T21:34:00.331Z,10.43
2023-02-13T21:36:28.921Z,10.68
2023-02-13T21:38:57.427Z,10.23
2023-02-13T21:41:26.206Z,9.32
2023-02-13T21:43:55.025Z,9.30
2023-02-13T21:46:26.682Z,10.07
2023-02-13T21:48:57.063Z,11.27
2023-02-13T21:51:27.596Z,12.73
2023-02-13T21:53:56.276Z,10.75
2023-02-13T21:56:26.702Z,8.88
2023-02-13T21:58:55.536Z,11.98
2023-02-13T22:01:27.638Z,8.73
2023-02-13T22:04:00.288Z,10.70
2023-02-13T22:06:30.448Z,11.02
2023-02-13T22:09:00.122Z,10.13
2023-02-13T22:11:29.742Z,10.38
2023-02-13T22:14:01.048Z,10.32
2023-02-13T22:16:32.444Z,8.98
2023-02-13T22:19:01.863Z,10.05
2023-02-13T22:21:32.349Z,11.77
2023-02-13T22:24:01.238Z,10.00
2023-02-13T22:26:31.550Z,9.75
2023-02-13T22:29:02.397Z,9.82
2023-02-13T22:31:32.526Z,13.80
2023-02-13T22:34:04.228Z,9.45
2023-02-13T22:36:33.283Z,11.48
2023-02-13T22:39:01.955Z,10.68
2023-02-13T22:41:30.900Z,8.60
2023-02-13T22:43:59.526Z,11.45
2023-02-13T22:46:30.225Z,11.48
2023-02-13T22:49:00.670Z,12.77
2023-02-13T22:51:30.951Z,10.40
2023-02-13T22:54:00.491Z,9.35
2023-02-13T22:56:30.980Z,9.38
2023-02-13T22:59:00.182Z,9.43
2023-02-13T23:01:29.546Z,12.07
2023-02-13T23:03:58.428Z,11.30
2023-02-13T23:06:28.832Z,12.45
2023-02-13T23:08:57.739Z,10.68
2023-02-13T23:11:46.360Z,12.70
2023-02-13T23:14:15.495Z,12.10
2023-02-13T23:17:01.769Z,10.93
2023-02-13T23:19:30.716Z,13.32
2023-02-13T23:22:00.953Z,13.40
2023-02-13T23:24:30.473Z,14.77
2023-02-13T23:26:59.364Z,16.60
2023-02-13T23:29:27.973Z,14.02
2023-02-13T23:31:56.899Z,12.95
2023-02-13T23:34:25.574Z,13.95
2023-02-13T23:36:54.208Z,14.07
2023-02-13T23:39:24.404Z,11.50
2023-02-13T23:41:52.972Z,12.55
2023-02-13T23:44:21.565Z,13.13
2023-02-13T23:46:50.258Z,16.25
2023-02-13T23:49:18.812Z,13.10
2023-02-13T23:51:47.689Z,11.90
2023-02-13T23:54:17.370Z,11.13
2023-02-13T23:56:47.502Z,15.82
2023-02-13T23:59:17.433Z,11.38
